sensor_id;sensor_type;location;lat;lon;timestamp;P1;durP1;ratioP1;P2;durP2;ratioP2
63157;SDS011;49381;49.338;8.794;2022-08-19T00:01:53;13.90;;;11.73;;
63157;SDS011;49381;49.338;8.794;2022-08-19T00:03:55;13.52;;;11.60;;
63157;SDS011;49381;49.338;8.794;2022-08-19T00:05:57;14.18;;;12.63;;
63157;SDS011;49381;49.338;8.794;2022-08-19T00:07:57;12.43;;;11.10;;
63157;SDS011;49381;49.338;8.794;2022-08-19T00:09:58;14.55;;;11.40;;
63157;SDS011;49381;49.338;8.794;2022-08-19T00:11:58;14.60;;;11.90;;
63157;SDS011;49381;49.338;8.794;2022-08-19T00:13:59;15.25;;;12.23;;
63157;SDS011;49381;49.338;8.794;2022-08-19T00:15:59;13.95;;;11.63;;
63157;SDS011;49381;49.338;8.794;2022-08-19T00:18:00;14.80;;;12.23;;
63157;SDS011;49381;49.338;8.794;2022-08-19T00:20:00;17.65;;;12.82;;
63157;SDS011;49381;49.338;8.794;2022-08-19T00:22:02;14.43;;;11.43;;
63157;SDS011;49381;49.338;8.794;2022-08-19T00:24:03;14.38;;;12.52;;
63157;SDS011;49381;49.338;8.794;2022-08-19T00:26:04;13.27;;;11.60;;
63157;SDS011;49381;49.338;8.794;2022-08-19T00:28:05;13.73;;;11.73;;
63157;SDS011;49381;49.338;8.794;2022-08-19T00:30:06;13.70;;;11.45;;
63157;SDS011;49381;49.338;8.794;2022-08-19T00:32:08;15.32;;;12.60;;
63157;SDS011;49381;49.338;8.794;2022-08-19T00:34:08;15.27;;;12.20;;
63157;SDS011;49381;49.338;8.794;2022-08-19T00:36:11;15.30;;;13.68;;
63157;SDS011;49381;49.338;8.794;2022-08-19T00:38:13;14.52;;;12.07;;
63157;SDS011;49381;49.338;8.794;2022-08-19T00:40:14;15.25;;;12.48;;
63157;SDS011;49381;49.338;8.794;2022-08-19T00:42:17;14.20;;;11.95;;
63157;SDS011;49381;49.338;8.794;2022-08-19T00:44:19;15.25;;;11.23;;
63157;SDS011;49381;49.338;8.794;2022-08-19T00:46:21;13.32;;;11.93;;
63157;SDS011;49381;49.338;8.794;2022-08-19T00:48:21;14.55;;;11.68;;
63157;SDS011;49381;49.338;8.794;2022-08-19T00:50:22;13.68;;;11.43;;
63157;SDS011;49381;49.338;8.794;2022-08-19T00:52:23;15.18;;;11.68;;
63157;SDS011;49381;49.338;8.794;2022-08-19T00:54:28;15.45;;;13.82;;
63157;SDS011;49381;49.338;8.794;2022-08-19T00:56:29;15.20;;;12.15;;
63157;SDS011;49381;49.338;8.794;2022-08-19T00:58:31;16.13;;;13.32;;
63157;SDS011;49381;49.338;8.794;2022-08-19T01:00:33;14.43;;;12.50;;
63157;SDS011;49381;49.338;8.794;2022-08-19T01:02:34;14.95;;;12.57;;
63157;SDS011;49381;49.338;8.794;2022-08-19T01:04:34;14.88;;;12.32;;
63157;SDS011;49381;49.338;8.794;2022-08-19T01:06:34;16.35;;;13.32;;
63157;SDS011;49381;49.338;8.794;2022-08-19T01:08:36;15.63;;;13.10;;
63157;SDS011;49381;49.338;8.794;2022-08-19T01:10:39;15.05;;;12.55;;
63157;SDS011;49381;49.338;8.794;2022-08-19T01:12:41;13.65;;;12.02;;
63157;SDS011;49381;49.338;8.794;2022-08-19T01:14:42;14.68;;;11.95;;
63157;SDS011;49381;49.338;8.794;2022-08-19T01:16:42;15.48;;;11.57;;
63157;SDS011;49381;49.338;8.794;2022-08-19T01:18:44;15.90;;;13.48;;
63157;SDS011;49381;49.338;8.794;2022-08-19T01:20:45;15.80;;;12.75;;
63157;SDS011;49381;49.338;8.794;2022-08-19T01:22:48;14.85;;;11.80;;
63157;SDS011;49381;49.338;8.794;2022-08-19T01:24:50;14.63;;;12.50;;
63157;SDS011;49381;49.338;8.794;2022-08-19T01:26:51;13.75;;;12.10;;
63157;SDS011;49381;49.338;8.794;2022-08-19T01:28:53;15.82;;;12.57;;
63157;SDS011;49381;49.338;8.794;2022-08-19T01:30:55;14.77;;;12.38;;
63157;SDS011;49381;49.338;8.794;2022-08-19T01:32:56;14.43;;;12.10;;
63157;SDS011;49381;49.338;8.794;2022-08-19T01:34:56;16.40;;;13.13;;
63157;SDS011;49381;49.338;8.794;2022-08-19T01:36:57;14.50;;;12.35;;
63157;SDS011;49381;49.338;8.794;2022-08-19T01:38:58;16.83;;;13.70;;
63157;SDS011;49381;49.338;8.794;2022-08-19T01:41:00;17.30;;;12.60;;
63157;SDS011;49381;49.338;8.794;2022-08-19T01:43:00;15.73;;;12.85;;
63157;SDS011;49381;49.338;8.794;2022-08-19T01:45:02;13.98;;;12.35;;
63157;SDS011;49381;49.338;8.794;2022-08-19T01:47:03;17.50;;;12.40;;
63157;SDS011;49381;49.338;8.794;2022-08-19T01:49:04;15.95;;;12.48;;
63157;SDS011;49381;49.338;8.794;2022-08-19T01:51:05;15.88;;;12.85;;
63157;SDS011;49381;49.338;8.794;2022-08-19T01:53:07;15.25;;;11.82;;
63157;SDS011;49381;49.338;8.794;2022-08-19T01:55:12;15.27;;;12.95;;
63157;SDS011;49381;49.338;8.794;2022-08-19T01:57:14;17.15;;;12.10;;
63157;SDS011;49381;49.338;8.794;2022-08-19T01:59:16;16.30;;;13.30;;
63157;SDS011;49381;49.338;8.794;2022-08-19T02:01:18;14.80;;;12.20;;
63157;SDS011;49381;49.338;8.794;2022-08-19T02:03:19;14.85;;;12.20;;
63157;SDS011;49381;49.338;8.794;2022-08-19T02:05:19;16.85;;;13.93;;
63157;SDS011;49381;49.338;8.794;2022-08-19T02:07:20;15.35;;;13.43;;
63157;SDS011;49381;49.338;8.794;2022-08-19T02:09:20;17.90;;;13.77;;
63157;SDS011;49381;49.338;8.794;2022-08-19T02:11:23;16.10;;;13.27;;
63157;SDS011;49381;49.338;8.794;2022-08-19T02:13:26;20.02;;;14.65;;
63157;SDS011;49381;49.338;8.794;2022-08-19T02:15:26;17.30;;;14.13;;
63157;SDS011;49381;49.338;8.794;2022-08-19T02:17:27;17.02;;;14.00;;
63157;SDS011;49381;49.338;8.794;2022-08-19T02:19:28;16.75;;;13.00;;
63157;SDS011;49381;49.338;8.794;2022-08-19T02:21:29;17.20;;;14.70;;
63157;SDS011;49381;49.338;8.794;2022-08-19T02:23:30;15.00;;;12.80;;
63157;SDS011;49381;49.338;8.794;2022-08-19T02:25:31;16.48;;;13.25;;
63157;SDS011;49381;49.338;8.794;2022-08-19T02:27:32;16.80;;;13.93;;
63157;SDS011;49381;49.338;8.794;2022-08-19T02:29:33;16.83;;;12.68;;
63157;SDS011;49381;49.338;8.794;2022-08-19T02:31:33;16.52;;;13.68;;
63157;SDS011;49381;49.338;8.794;2022-08-19T02:33:34;16.73;;;12.68;;
63157;SDS011;49381;49.338;8.794;2022-08-19T02:35:34;16.30;;;12.57;;
63157;SDS011;49381;49.338;8.794;2022-08-19T02:37:34;17.88;;;13.95;;
63157;SDS011;49381;49.338;8.794;2022-08-19T02:39:35;17.15;;;13.52;;
63157;SDS011;49381;49.338;8.794;2022-08-19T02:41:35;14.27;;;11.75;;
63157;SDS011;49381;49.338;8.794;2022-08-19T02:43:37;17.10;;;12.52;;
63157;SDS011;49381;49.338;8.794;2022-08-19T02:45:38;17.88;;;13.57;;
63157;SDS011;49381;49.338;8.794;2022-08-19T02:47:38;16.70;;;14.15;;
63157;SDS011;49381;49.338;8.794;2022-08-19T02:49:39;16.63;;;12.85;;
63157;SDS011;49381;49.338;8.794;2022-08-19T02:51:41;17.30;;;14.13;;
63157;SDS011;49381;49.338;8.794;2022-08-19T02:53:42;16.65;;;12.60;;
63157;SDS011;49381;49.338;8.794;2022-08-19T02:55:43;17.65;;;14.75;;
63157;SDS011;49381;49.338;8.794;2022-08-19T02:57:44;17.52;;;13.18;;
63157;SDS011;49381;49.338;8.794;2022-08-19T02:59:46;19.10;;;14.95;;
63157;SDS011;49381;49.338;8.794;2022-08-19T03:01:46;19.30;;;15.15;;
63157;SDS011;49381;49.338;8.794;2022-08-19T03:03:46;19.17;;;14.32;;
63157;SDS011;49381;49.338;8.794;2022-08-19T03:05:47;19.33;;;14.27;;
63157;SDS011;49381;49.338;8.794;2022-08-19T03:07:47;18.50;;;15.45;;
63157;SDS011;49381;49.338;8.794;2022-08-19T03:09:48;17.42;;;13.68;;
63157;SDS011;49381;49.338;8.794;2022-08-19T03:11:48;16.88;;;13.85;;
63157;SDS011;49381;49.338;8.794;2022-08-19T03:13:48;18.05;;;13.85;;
63157;SDS011;49381;49.338;8.794;2022-08-19T03:15:51;17.17;;;14.13;;
63157;SDS011;49381;49.338;8.794;2022-08-19T03:17:51;17.58;;;13.68;;
63157;SDS011;49381;49.338;8.794;2022-08-19T03:19:51;18.77;;;14.48;;
63157;SDS011;49381;49.338;8.794;2022-08-19T03:21:52;20.08;;;16.30;;
63157;SDS011;49381;49.338;8.794;2022-08-19T03:23:53;20.77;;;16.30;;
63157;SDS011;49381;49.338;8.794;2022-08-19T03:25:54;18.92;;;14.05;;
63157;SDS011;49381;49.338;8.794;2022-08-19T03:27:54;19.73;;;14.43;;
63157;SDS011;49381;49.338;8.794;2022-08-19T03:29:55;18.88;;;13.73;;
63157;SDS011;49381;49.338;8.794;2022-08-19T03:31:56;20.33;;;15.32;;
63157;SDS011;49381;49.338;8.794;2022-08-19T03:33:57;21.30;;;16.25;;
63157;SDS011;49381;49.338;8.794;2022-08-19T03:36:05;19.27;;;14.75;;
63157;SDS011;49381;49.338;8.794;2022-08-19T03:38:07;20.98;;;14.93;;
63157;SDS011;49381;49.338;8.794;2022-08-19T03:40:07;19.60;;;14.45;;
63157;SDS011;49381;49.338;8.794;2022-08-19T03:42:08;20.05;;;15.77;;
63157;SDS011;49381;49.338;8.794;2022-08-19T03:44:09;18.65;;;14.45;;
63157;SDS011;49381;49.338;8.794;2022-08-19T03:46:11;18.08;;;13.40;;
63157;SDS011;49381;49.338;8.794;2022-08-19T03:48:13;20.00;;;13.30;;
63157;SDS011;49381;49.338;8.794;2022-08-19T03:50:14;17.48;;;13.00;;
63157;SDS011;49381;49.338;8.794;2022-08-19T03:52:15;17.77;;;13.43;;
63157;SDS011;49381;49.338;8.794;2022-08-19T03:54:16;23.08;;;15.57;;
63157;SDS011;49381;49.338;8.794;2022-08-19T03:56:18;20.27;;;14.60;;
63157;SDS011;49381;49.338;8.794;2022-08-19T03:58:18;21.05;;;16.52;;
63157;SDS011;49381;49.338;8.794;2022-08-19T04:00:19;17.88;;;13.82;;
63157;SDS011;49381;49.338;8.794;2022-08-19T04:02:19;20.65;;;14.73;;
63157;SDS011;49381;49.338;8.794;2022-08-19T04:04:21;19.02;;;14.40;;
63157;SDS011;49381;49.338;8.794;2022-08-19T04:06:23;19.50;;;14.38;;
63157;SDS011;49381;49.338;8.794;2022-08-19T04:08:26;22.80;;;15.60;;
63157;SDS011;49381;49.338;8.794;2022-08-19T04:10:27;21.23;;;15.63;;
63157;SDS011;49381;49.338;8.794;2022-08-19T04:12:27;18.48;;;14.68;;
63157;SDS011;49381;49.338;8.794;2022-08-19T04:14:29;19.60;;;14.40;;
63157;SDS011;49381;49.338;8.794;2022-08-19T04:16:29;19.20;;;13.68;;
63157;SDS011;49381;49.338;8.794;2022-08-19T04:18:30;20.08;;;15.45;;
63157;SDS011;49381;49.338;8.794;2022-08-19T04:20:31;19.25;;;14.68;;
63157;SDS011;49381;49.338;8.794;2022-08-19T04:22:32;19.42;;;14.95;;
63157;SDS011;49381;49.338;8.794;2022-08-19T04:24:32;19.88;;;15.57;;
63157;SDS011;49381;49.338;8.794;2022-08-19T04:26:34;22.10;;;14.70;;
63157;SDS011;49381;49.338;8.794;2022-08-19T04:28:35;21.27;;;15.95;;
63157;SDS011;49381;49.338;8.794;2022-08-19T04:30:40;18.20;;;14.93;;
63157;SDS011;49381;49.338;8.794;2022-08-19T04:32:42;19.20;;;15.50;;
63157;SDS011;49381;49.338;8.794;2022-08-19T04:34:42;19.90;;;14.45;;
63157;SDS011;49381;49.338;8.794;2022-08-19T04:36:44;20.75;;;15.35;;
63157;SDS011;49381;49.338;8.794;2022-08-19T04:38:44;19.13;;;15.32;;
63157;SDS011;49381;49.338;8.794;2022-08-19T04:40:46;19.05;;;14.30;;
63157;SDS011;49381;49.338;8.794;2022-08-19T04:42:47;23.00;;;15.43;;
63157;SDS011;49381;49.338;8.794;2022-08-19T04:44:47;20.42;;;15.63;;
63157;SDS011;49381;49.338;8.794;2022-08-19T04:46:48;21.65;;;15.90;;
63157;SDS011;49381;49.338;8.794;2022-08-19T04:48:50;27.23;;;15.95;;
63157;SDS011;49381;49.338;8.794;2022-08-19T04:50:50;19.08;;;14.25;;
63157;SDS011;49381;49.338;8.794;2022-08-19T04:52:53;20.80;;;15.73;;
63157;SDS011;49381;49.338;8.794;2022-08-19T04:54:53;19.77;;;14.32;;
63157;SDS011;49381;49.338;8.794;2022-08-19T04:56:54;23.00;;;15.43;;
63157;SDS011;49381;49.338;8.794;2022-08-19T04:58:55;22.90;;;14.20;;
63157;SDS011;49381;49.338;8.794;2022-08-19T05:00:56;19.17;;;14.52;;
63157;SDS011;49381;49.338;8.794;2022-08-19T05:02:56;20.48;;;14.90;;
63157;SDS011;49381;49.338;8.794;2022-08-19T05:04:57;24.15;;;17.48;;
63157;SDS011;49381;49.338;8.794;2022-08-19T05:06:58;21.33;;;15.07;;
63157;SDS011;49381;49.338;8.794;2022-08-19T05:09:00;21.95;;;14.52;;
63157;SDS011;49381;49.338;8.794;2022-08-19T05:11:06;21.85;;;15.13;;
63157;SDS011;49381;49.338;8.794;2022-08-19T05:13:08;22.45;;;14.55;;
63157;SDS011;49381;49.338;8.794;2022-08-19T05:15:09;20.90;;;14.30;;
63157;SDS011;49381;49.338;8.794;2022-08-19T05:17:09;23.25;;;16.45;;
63157;SDS011;49381;49.338;8.794;2022-08-19T05:19:10;20.73;;;14.32;;
63157;SDS011;49381;49.338;8.794;2022-08-19T05:21:11;20.10;;;14.43;;
63157;SDS011;49381;49.338;8.794;2022-08-19T05:23:17;20.27;;;14.05;;
63157;SDS011;49381;49.338;8.794;2022-08-19T05:25:20;20.17;;;14.88;;
63157;SDS011;49381;49.338;8.794;2022-08-19T05:27:21;21.20;;;16.13;;
63157;SDS011;49381;49.338;8.794;2022-08-19T05:29:22;21.08;;;13.50;;
63157;SDS011;49381;49.338;8.794;2022-08-19T05:31:25;24.10;;;14.23;;
63157;SDS011;49381;49.338;8.794;2022-08-19T05:33:25;30.67;;;15.57;;
63157;SDS011;49381;49.338;8.794;2022-08-19T05:35:25;23.42;;;13.82;;
63157;SDS011;49381;49.338;8.794;2022-08-19T05:37:26;24.75;;;14.98;;
63157;SDS011;49381;49.338;8.794;2022-08-19T05:39:27;20.83;;;15.90;;
63157;SDS011;49381;49.338;8.794;2022-08-19T05:41:31;23.48;;;15.05;;
63157;SDS011;49381;49.338;8.794;2022-08-19T05:43:31;25.80;;;13.98;;
63157;SDS011;49381;49.338;8.794;2022-08-19T05:45:31;28.38;;;17.35;;
63157;SDS011;49381;49.338;8.794;2022-08-19T05:47:32;25.52;;;14.25;;
63157;SDS011;49381;49.338;8.794;2022-08-19T05:49:33;23.38;;;13.35;;
63157;SDS011;49381;49.338;8.794;2022-08-19T05:51:34;39.55;;;16.27;;
63157;SDS011;49381;49.338;8.794;2022-08-19T05:53:35;28.45;;;14.63;;
63157;SDS011;49381;49.338;8.794;2022-08-19T05:55:36;32.53;;;17.25;;
63157;SDS011;49381;49.338;8.794;2022-08-19T05:57:37;30.63;;;15.57;;
63157;SDS011;49381;49.338;8.794;2022-08-19T05:59:38;29.05;;;16.65;;
63157;SDS011;49381;49.338;8.794;2022-08-19T06:01:38;33.42;;;16.15;;
63157;SDS011;49381;49.338;8.794;2022-08-19T06:03:41;25.00;;;15.02;;
63157;SDS011;49381;49.338;8.794;2022-08-19T06:05:41;29.65;;;15.40;;
63157;SDS011;49381;49.338;8.794;2022-08-19T06:07:41;25.02;;;14.85;;
63157;SDS011;49381;49.338;8.794;2022-08-19T06:09:42;29.38;;;15.15;;
63157;SDS011;49381;49.338;8.794;2022-08-19T06:11:43;30.83;;;16.85;;
63157;SDS011;49381;49.338;8.794;2022-08-19T06:13:47;26.05;;;15.45;;
63157;SDS011;49381;49.338;8.794;2022-08-19T06:15:49;25.27;;;15.88;;
63157;SDS011;49381;49.338;8.794;2022-08-19T06:17:49;24.67;;;15.65;;
63157;SDS011;49381;49.338;8.794;2022-08-19T06:19:49;26.60;;;15.15;;
63157;SDS011;49381;49.338;8.794;2022-08-19T06:21:50;23.95;;;15.13;;
63157;SDS011;49381;49.338;8.794;2022-08-19T06:23:52;24.95;;;16.40;;
63157;SDS011;49381;49.338;8.794;2022-08-19T06:25:52;25.92;;;15.90;;
63157;SDS011;49381;49.338;8.794;2022-08-19T06:27:52;27.35;;;16.50;;
63157;SDS011;49381;49.338;8.794;2022-08-19T06:29:54;23.40;;;14.82;;
63157;SDS011;49381;49.338;8.794;2022-08-19T06:31:55;28.80;;;14.63;;
63157;SDS011;49381;49.338;8.794;2022-08-19T06:33:57;40.03;;;17.40;;
63157;SDS011;49381;49.338;8.794;2022-08-19T06:35:57;26.50;;;16.33;;
63157;SDS011;49381;49.338;8.794;2022-08-19T06:37:57;44.22;;;17.75;;
63157;SDS011;49381;49.338;8.794;2022-08-19T06:39:58;30.17;;;15.88;;
63157;SDS011;49381;49.338;8.794;2022-08-19T06:41:59;34.30;;;17.08;;
63157;SDS011;49381;49.338;8.794;2022-08-19T06:44:01;41.47;;;16.35;;
63157;SDS011;49381;49.338;8.794;2022-08-19T06:46:02;28.95;;;16.35;;
63157;SDS011;49381;49.338;8.794;2022-08-19T06:48:03;33.70;;;17.20;;
63157;SDS011;49381;49.338;8.794;2022-08-19T06:50:04;26.95;;;15.40;;
63157;SDS011;49381;49.338;8.794;2022-08-19T06:52:05;31.48;;;16.67;;
63157;SDS011;49381;49.338;8.794;2022-08-19T06:54:06;25.95;;;14.85;;
63157;SDS011;49381;49.338;8.794;2022-08-19T06:56:06;20.33;;;13.43;;
63157;SDS011;49381;49.338;8.794;2022-08-19T06:58:06;19.23;;;13.60;;
63157;SDS011;49381;49.338;8.794;2022-08-19T07:00:08;19.17;;;13.65;;
63157;SDS011;49381;49.338;8.794;2022-08-19T07:02:10;16.65;;;12.95;;
63157;SDS011;49381;49.338;8.794;2022-08-19T07:04:11;20.35;;;14.18;;
63157;SDS011;49381;49.338;8.794;2022-08-19T07:06:13;18.50;;;12.55;;
63157;SDS011;49381;49.338;8.794;2022-08-19T07:08:15;19.23;;;15.02;;
63157;SDS011;49381;49.338;8.794;2022-08-19T07:10:16;17.38;;;12.00;;
63157;SDS011;49381;49.338;8.794;2022-08-19T07:12:16;17.75;;;13.95;;
63157;SDS011;49381;49.338;8.794;2022-08-19T07:14:17;19.75;;;12.77;;
63157;SDS011;49381;49.338;8.794;2022-08-19T07:16:19;21.30;;;15.45;;
63157;SDS011;49381;49.338;8.794;2022-08-19T07:18:21;19.17;;;13.65;;
63157;SDS011;49381;49.338;8.794;2022-08-19T07:20:21;18.67;;;13.43;;
63157;SDS011;49381;49.338;8.794;2022-08-19T07:22:22;18.75;;;12.75;;
63157;SDS011;49381;49.338;8.794;2022-08-19T07:24:23;19.52;;;13.90;;
63157;SDS011;49381;49.338;8.794;2022-08-19T07:26:25;21.20;;;15.43;;
63157;SDS011;49381;49.338;8.794;2022-08-19T07:28:29;21.02;;;14.95;;
63157;SDS011;49381;49.338;8.794;2022-08-19T07:30:30;21.02;;;15.98;;
63157;SDS011;49381;49.338;8.794;2022-08-19T07:32:30;21.92;;;15.50;;
63157;SDS011;49381;49.338;8.794;2022-08-19T07:34:32;18.23;;;14.35;;
63157;SDS011;49381;49.338;8.794;2022-08-19T07:36:33;19.40;;;14.65;;
63157;SDS011;49381;49.338;8.794;2022-08-19T07:38:35;21.45;;;15.77;;
63157;SDS011;49381;49.338;8.794;2022-08-19T07:40:35;21.38;;;15.20;;
63157;SDS011;49381;49.338;8.794;2022-08-19T07:42:35;22.27;;;15.25;;
63157;SDS011;49381;49.338;8.794;2022-08-19T07:44:36;17.70;;;12.88;;
63157;SDS011;49381;49.338;8.794;2022-08-19T07:46:38;17.58;;;13.82;;
63157;SDS011;49381;49.338;8.794;2022-08-19T07:48:41;16.02;;;12.63;;
63157;SDS011;49381;49.338;8.794;2022-08-19T07:50:43;16.77;;;12.93;;
63157;SDS011;49381;49.338;8.794;2022-08-19T07:52:44;18.63;;;13.10;;
63157;SDS011;49381;49.338;8.794;2022-08-19T07:54:44;15.88;;;11.85;;
63157;SDS011;49381;49.338;8.794;2022-08-19T07:56:44;16.23;;;12.18;;
63157;SDS011;49381;49.338;8.794;2022-08-19T07:58:46;20.50;;;14.32;;
63157;SDS011;49381;49.338;8.794;2022-08-19T08:00:48;23.58;;;15.23;;
63157;SDS011;49381;49.338;8.794;2022-08-19T08:02:50;19.83;;;15.10;;
63157;SDS011;49381;49.338;8.794;2022-08-19T08:04:50;16.70;;;12.00;;
63157;SDS011;49381;49.338;8.794;2022-08-19T08:06:52;18.23;;;12.40;;
63157;SDS011;49381;49.338;8.794;2022-08-19T08:08:52;19.52;;;14.45;;
63157;SDS011;49381;49.338;8.794;2022-08-19T08:10:53;19.70;;;14.38;;
63157;SDS011;49381;49.338;8.794;2022-08-19T08:12:53;20.15;;;14.32;;
63157;SDS011;49381;49.338;8.794;2022-08-19T08:14:54;20.15;;;14.32;;
63157;SDS011;49381;49.338;8.794;2022-08-19T08:16:56;17.77;;;13.48;;
63157;SDS011;49381;49.338;8.794;2022-08-19T08:18:57;15.65;;;11.30;;
63157;SDS011;49381;49.338;8.794;2022-08-19T08:20:58;21.63;;;12.82;;
63157;SDS011;49381;49.338;8.794;2022-08-19T08:22:59;15.38;;;10.30;;
63157;SDS011;49381;49.338;8.794;2022-08-19T08:25:00;12.77;;;11.10;;
63157;SDS011;49381;49.338;8.794;2022-08-19T08:27:03;14.65;;;10.82;;
63157;SDS011;49381;49.338;8.794;2022-08-19T08:29:03;15.57;;;11.82;;
63157;SDS011;49381;49.338;8.794;2022-08-19T08:31:03;16.92;;;12.68;;
63157;SDS011;49381;49.338;8.794;2022-08-19T08:33:04;16.45;;;12.45;;
63157;SDS011;49381;49.338;8.794;2022-08-19T08:35:05;14.45;;;11.20;;
63157;SDS011;49381;49.338;8.794;2022-08-19T08:37:06;16.00;;;11.60;;
63157;SDS011;49381;49.338;8.794;2022-08-19T08:39:08;17.13;;;10.68;;
63157;SDS011;49381;49.338;8.794;2022-08-19T08:41:10;14.40;;;10.13;;
63157;SDS011;49381;49.338;8.794;2022-08-19T08:43:21;12.68;;;10.10;;
63157;SDS011;49381;49.338;8.794;2022-08-19T08:45:24;16.45;;;11.32;;
63157;SDS011;49381;49.338;8.794;2022-08-19T08:47:25;13.90;;;10.07;;
63157;SDS011;49381;49.338;8.794;2022-08-19T08:49:29;14.18;;;9.48;;
63157;SDS011;49381;49.338;8.794;2022-08-19T08:51:34;13.48;;;9.73;;
63157;SDS011;49381;49.338;8.794;2022-08-19T08:53:36;10.95;;;9.13;;
63157;SDS011;49381;49.338;8.794;2022-08-19T08:55:39;13.07;;;9.05;;
63157;SDS011;49381;49.338;8.794;2022-08-19T08:57:43;11.55;;;9.05;;
63157;SDS011;49381;49.338;8.794;2022-08-19T08:59:50;16.38;;;10.70;;
63157;SDS011;49381;49.338;8.794;2022-08-19T09:01:53;13.52;;;10.20;;
63157;SDS011;49381;49.338;8.794;2022-08-19T09:03:53;14.45;;;9.57;;
63157;SDS011;49381;49.338;8.794;2022-08-19T09:05:59;13.65;;;9.25;;
63157;SDS011;49381;49.338;8.794;2022-08-19T09:08:02;14.13;;;10.32;;
63157;SDS011;49381;49.338;8.794;2022-08-19T09:10:08;11.85;;;9.15;;
63157;SDS011;49381;49.338;8.794;2022-08-19T09:12:18;11.35;;;9.30;;
63157;SDS011;49381;49.338;8.794;2022-08-19T09:14:36;10.20;;;8.77;;
63157;SDS011;49381;49.338;8.794;2022-08-19T09:16:38;13.73;;;9.63;;
63157;SDS011;49381;49.338;8.794;2022-08-19T09:18:39;11.00;;;9.02;;
63157;SDS011;49381;49.338;8.794;2022-08-19T09:20:42;8.98;;;8.05;;
63157;SDS011;49381;49.338;8.794;2022-08-19T09:22:42;14.10;;;9.13;;
63157;SDS011;49381;49.338;8.794;2022-08-19T09:24:43;11.10;;;7.88;;
63157;SDS011;49381;49.338;8.794;2022-08-19T09:26:43;12.00;;;8.07;;
63157;SDS011;49381;49.338;8.794;2022-08-19T09:28:45;10.30;;;8.38;;
63157;SDS011;49381;49.338;8.794;2022-08-19T09:30:46;9.13;;;7.70;;
63157;SDS011;49381;49.338;8.794;2022-08-19T09:32:46;11.85;;;8.70;;
63157;SDS011;49381;49.338;8.794;2022-08-19T09:34:47;12.05;;;9.32;;
63157;SDS011;49381;49.338;8.794;2022-08-19T09:36:48;8.90;;;7.15;;
63157;SDS011;49381;49.338;8.794;2022-08-19T09:38:49;10.52;;;8.18;;
63157;SDS011;49381;49.338;8.794;2022-08-19T09:40:49;10.35;;;8.48;;
63157;SDS011;49381;49.338;8.794;2022-08-19T09:42:49;11.70;;;7.55;;
63157;SDS011;49381;49.338;8.794;2022-08-19T09:44:51;11.65;;;8.65;;
63157;SDS011;49381;49.338;8.794;2022-08-19T09:46:51;12.43;;;8.48;;
63157;SDS011;49381;49.338;8.794;2022-08-19T09:48:52;10.27;;;7.45;;
63157;SDS011;49381;49.338;8.794;2022-08-19T09:50:53;9.32;;;7.22;;
63157;SDS011;49381;49.338;8.794;2022-08-19T09:52:53;7.30;;;5.93;;
63157;SDS011;49381;49.338;8.794;2022-08-19T09:54:53;11.43;;;7.00;;
63157;SDS011;49381;49.338;8.794;2022-08-19T09:56:54;9.25;;;6.82;;
63157;SDS011;49381;49.338;8.794;2022-08-19T09:58:54;9.65;;;7.13;;
63157;SDS011;49381;49.338;8.794;2022-08-19T10:00:57;8.75;;;6.13;;
63157;SDS011;49381;49.338;8.794;2022-08-19T10:02:59;7.55;;;5.97;;
63157;SDS011;49381;49.338;8.794;2022-08-19T10:04:59;8.65;;;6.13;;
63157;SDS011;49381;49.338;8.794;2022-08-19T10:06:59;7.53;;;5.45;;
63157;SDS011;49381;49.338;8.794;2022-08-19T10:09:00;8.15;;;6.20;;
63157;SDS011;49381;49.338;8.794;2022-08-19T10:11:00;8.30;;;6.03;;
63157;SDS011;49381;49.338;8.794;2022-08-19T10:13:02;11.48;;;6.55;;
63157;SDS011;49381;49.338;8.794;2022-08-19T10:15:02;11.18;;;6.55;;
63157;SDS011;49381;49.338;8.794;2022-08-19T10:17:04;7.70;;;6.22;;
63157;SDS011;49381;49.338;8.794;2022-08-19T10:19:05;7.07;;;5.78;;
63157;SDS011;49381;49.338;8.794;2022-08-19T10:21:06;9.52;;;6.93;;
63157;SDS011;49381;49.338;8.794;2022-08-19T10:23:08;7.55;;;5.60;;
63157;SDS011;49381;49.338;8.794;2022-08-19T10:25:08;7.88;;;5.70;;
63157;SDS011;49381;49.338;8.794;2022-08-19T10:27:09;10.73;;;6.30;;
63157;SDS011;49381;49.338;8.794;2022-08-19T10:29:09;10.48;;;6.75;;
63157;SDS011;49381;49.338;8.794;2022-08-19T10:31:10;8.25;;;6.10;;
63157;SDS011;49381;49.338;8.794;2022-08-19T10:33:13;8.38;;;5.88;;
63157;SDS011;49381;49.338;8.794;2022-08-19T10:35:13;8.68;;;5.82;;
63157;SDS011;49381;49.338;8.794;2022-08-19T10:37:14;7.35;;;4.88;;
63157;SDS011;49381;49.338;8.794;2022-08-19T10:39:15;8.35;;;5.75;;
63157;SDS011;49381;49.338;8.794;2022-08-19T10:41:16;7.35;;;4.70;;
63157;SDS011;49381;49.338;8.794;2022-08-19T10:43:18;7.68;;;4.65;;
63157;SDS011;49381;49.338;8.794;2022-08-19T10:45:18;7.40;;;4.60;;
63157;SDS011;49381;49.338;8.794;2022-08-19T10:47:18;5.90;;;4.60;;
63157;SDS011;49381;49.338;8.794;2022-08-19T10:49:20;7.22;;;4.30;;
63157;SDS011;49381;49.338;8.794;2022-08-19T10:51:21;7.07;;;4.80;;
63157;SDS011;49381;49.338;8.794;2022-08-19T10:53:21;5.88;;;4.32;;
63157;SDS011;49381;49.338;8.794;2022-08-19T10:55:22;5.30;;;4.80;;
63157;SDS011;49381;49.338;8.794;2022-08-19T10:57:23;7.80;;;4.10;;
63157;SDS011;49381;49.338;8.794;2022-08-19T10:59:25;7.43;;;4.57;;
63157;SDS011;49381;49.338;8.794;2022-08-19T11:01:27;8.80;;;4.20;;
63157;SDS011;49381;49.338;8.794;2022-08-19T11:03:27;5.45;;;4.35;;
63157;SDS011;49381;49.338;8.794;2022-08-19T11:05:28;6.85;;;4.25;;
63157;SDS011;49381;49.338;8.794;2022-08-19T11:07:29;5.25;;;4.25;;
63157;SDS011;49381;49.338;8.794;2022-08-19T11:09:29;5.65;;;4.47;;
63157;SDS011;49381;49.338;8.794;2022-08-19T11:11:30;5.40;;;4.60;;
63157;SDS011;49381;49.338;8.794;2022-08-19T11:13:30;6.90;;;5.28;;
63157;SDS011;49381;49.338;8.794;2022-08-19T11:15:32;6.20;;;4.43;;
63157;SDS011;49381;49.338;8.794;2022-08-19T11:17:32;5.60;;;4.22;;
63157;SDS011;49381;49.338;8.794;2022-08-19T11:19:33;6.13;;;3.83;;
63157;SDS011;49381;49.338;8.794;2022-08-19T11:21:36;4.97;;;3.83;;
63157;SDS011;49381;49.338;8.794;2022-08-19T11:23:38;6.80;;;4.82;;
63157;SDS011;49381;49.338;8.794;2022-08-19T11:25:39;5.40;;;4.55;;
63157;SDS011;49381;49.338;8.794;2022-08-19T11:27:40;7.60;;;4.68;;
63157;SDS011;49381;49.338;8.794;2022-08-19T11:29:40;6.00;;;4.47;;
63157;SDS011;49381;49.338;8.794;2022-08-19T11:31:41;5.07;;;4.22;;
63157;SDS011;49381;49.338;8.794;2022-08-19T11:33:43;6.18;;;4.32;;
63157;SDS011;49381;49.338;8.794;2022-08-19T11:35:44;5.90;;;4.03;;
63157;SDS011;49381;49.338;8.794;2022-08-19T11:37:45;5.40;;;4.25;;
63157;SDS011;49381;49.338;8.794;2022-08-19T11:39:46;6.10;;;4.53;;
63157;SDS011;49381;49.338;8.794;2022-08-19T11:41:46;5.65;;;4.25;;
63157;SDS011;49381;49.338;8.794;2022-08-19T11:43:47;6.03;;;4.32;;
63157;SDS011;49381;49.338;8.794;2022-08-19T11:45:47;5.50;;;4.22;;
63157;SDS011;49381;49.338;8.794;2022-08-19T11:47:47;5.60;;;5.00;;
63157;SDS011;49381;49.338;8.794;2022-08-19T11:49:48;6.50;;;5.05;;
63157;SDS011;49381;49.338;8.794;2022-08-19T11:51:48;6.05;;;4.95;;
63157;SDS011;49381;49.338;8.794;2022-08-19T11:53:50;5.55;;;5.05;;